sensor_id;sensor_type;location;lat;lon;timestamp;pressure;altitude;pressure_sealevel;temperature;humidity
10946;BME280;5525;42.648;23.368;2023-04-08T00:00:25;94770.00;;;5.31;100.00
10946;BME280;5525;42.648;23.368;2023-04-08T00:02:52;94759.56;;;5.10;100.00
10946;BME280;5525;42.648;23.368;2023-04-08T00:05:20;94759.47;;;4.97;100.00
10946;BME280;5525;42.648;23.368;2023-04-08T00:07:46;94766.72;;;4.96;100.00
10946;BME280;5525;42.648;23.368;2023-04-08T00:10:13;94769.22;;;4.88;100.00
10946;BME280;5525;42.648;23.368;2023-04-08T00:12:40;94771.59;;;4.89;100.00
10946;BME280;5525;42.648;23.368;2023-04-08T00:15:07;94758.78;;;5.10;100.00
10946;BME280;5525;42.648;23.368;2023-04-08T00:17:34;94765.97;;;5.33;100.00
10946;BME280;5525;42.648;23.368;2023-04-08T00:20:01;94751.44;;;5.39;100.00
10946;BME280;5525;42.648;23.368;2023-04-08T00:22:30;94761.41;;;5.52;100.00
10946;BME280;5525;42.648;23.368;2023-04-08T00:24:57;94759.09;;;5.27;100.00
10946;BME280;5525;42.648;23.368;2023-04-08T00:27:23;94764.91;;;5.53;100.00
10946;BME280;5525;42.648;23.368;2023-04-08T00:29:50;94760.06;;;5.55;100.00
10946;BME280;5525;42.648;23.368;2023-04-08T00:32:18;94760.69;;;5.65;100.00
10946;BME280;5525;42.648;23.368;2023-04-08T00:34:45;94752.94;;;5.64;100.00
10946;BME280;5525;42.648;23.368;2023-04-08T00:37:11;94757.09;;;5.56;100.00
10946;BME280;5525;42.648;23.368;2023-04-08T00:39:39;94754.88;;;5.58;100.00
10946;BME280;5525;42.648;23.368;2023-04-08T00:42:06;94759.69;;;5.61;100.00
10946;BME280;5525;42.648;23.368;2023-04-08T00:44:34;94770.13;;;5.44;100.00
10946;BME280;5525;42.648;23.368;2023-04-08T00:47:01;94761.78;;;5.46;100.00
10946;BME280;5525;42.648;23.368;2023-04-08T00:49:30;94756.34;;;5.32;100.00
10946;BME280;5525;42.648;23.368;2023-04-08T00:51:57;94775.16;;;5.27;100.00
10946;BME280;5525;42.648;23.368;2023-04-08T00:54:24;94765.63;;;5.40;100.00
10946;BME280;5525;42.648;23.368;2023-04-08T00:56:52;94772.50;;;5.46;100.00
10946;BME280;5525;42.648;23.368;2023-04-08T00:59:20;94770.13;;;5.44;100.00
10946;BME280;5525;42.648;23.368;2023-04-08T01:01:53;94776.88;;;5.37;100.00
10946;BME280;5525;42.648;23.368;2023-04-08T01:04:27;94769.59;;;5.42;100.00
10946;BME280;5525;42.648;23.368;2023-04-08T01:07:01;94766.75;;;5.34;100.00
10946;BME280;5525;42.648;23.368;2023-04-08T01:09:31;94778.28;;;5.34;100.00
10946;BME280;5525;42.648;23.368;2023-04-08T01:12:04;94776.53;;;5.43;100.00
10946;BME280;5525;42.648;23.368;2023-04-08T01:14:34;94771.13;;;5.48;100.00
10946;BME280;5525;42.648;23.368;2023-04-08T01:17:03;94769.72;;;5.51;100.00
10946;BME280;5525;42.648;23.368;2023-04-08T01:19:39;94771.34;;;5.52;100.00
10946;BME280;5525;42.648;23.368;2023-04-08T01:22:14;94776.88;;;5.37;100.00
10946;BME280;5525;42.648;23.368;2023-04-08T01:24:46;94769.88;;;5.41;100.00
10946;BME280;5525;42.648;23.368;2023-04-08T01:27:18;94774.88;;;5.29;100.00
10946;BME280;5525;42.648;23.368;2023-04-08T01:29:46;94774.13;;;5.23;100.00
10946;BME280;5525;42.648;23.368;2023-04-08T01:32:15;94778.22;;;5.39;100.00
10946;BME280;5525;42.648;23.368;2023-04-08T01:34:43;94767.84;;;5.33;100.00
10946;BME280;5525;42.648;23.368;2023-04-08T01:37:11;94766.91;;;5.23;100.00
10946;BME280;5525;42.648;23.368;2023-04-08T01:39:40;94780.13;;;5.15;100.00
10946;BME280;5525;42.648;23.368;2023-04-08T01:42:07;94777.44;;;4.96;100.00
10946;BME280;5525;42.648;23.368;2023-04-08T01:44:36;94777.88;;;5.03;100.00
10946;BME280;5525;42.648;23.368;2023-04-08T01:47:05;94764.63;;;5.12;100.00
10946;BME280;5525;42.648;23.368;2023-04-08T01:49:32;94775.72;;;5.05;100.00
10946;BME280;5525;42.648;23.368;2023-04-08T01:51:59;94773.94;;;5.19;100.00
10946;BME280;5525;42.648;23.368;2023-04-08T01:54:27;94773.63;;;5.21;100.00
10946;BME280;5525;42.648;23.368;2023-04-08T01:56:54;94786.06;;;5.31;100.00
10946;BME280;5525;42.648;23.368;2023-04-08T01:59:23;94787.34;;;5.38;100.00
10946;BME280;5525;42.648;23.368;2023-04-08T02:01:57;94776.81;;;5.42;100.00
10946;BME280;5525;42.648;23.368;2023-04-08T02:04:24;94786.59;;;5.51;100.00
10946;BME280;5525;42.648;23.368;2023-04-08T02:06:51;94786.84;;;5.55;100.00
10946;BME280;5525;42.648;23.368;2023-04-08T02:09:18;94788.00;;;5.49;100.00
10946;BME280;5525;42.648;23.368;2023-04-08T02:11:44;94790.22;;;5.60;100.00
10946;BME280;5525;42.648;23.368;2023-04-08T02:14:11;94799.34;;;5.59;100.00
10946;BME280;5525;42.648;23.368;2023-04-08T02:16:39;94795.16;;;5.53;100.00
10946;BME280;5525;42.648;23.368;2023-04-08T02:19:13;94792.69;;;5.57;100.00
10946;BME280;5525;42.648;23.368;2023-04-08T02:21:45;94796.16;;;5.57;100.00
10946;BME280;5525;42.648;23.368;2023-04-08T02:24:13;94796.22;;;5.52;100.00
10946;BME280;5525;42.648;23.368;2023-04-08T02:26:43;94791.97;;;5.51;100.00
10946;BME280;5525;42.648;23.368;2023-04-08T02:29:11;94800.41;;;5.58;100.00
10946;BME280;5525;42.648;23.368;2023-04-08T02:31:40;94790.81;;;5.57;100.00
10946;BME280;5525;42.648;23.368;2023-04-08T02:34:10;94792.53;;;5.48;100.00
10946;BME280;5525;42.648;23.368;2023-04-08T02:36:37;94776.34;;;5.40;100.00
10946;BME280;5525;42.648;23.368;2023-04-08T02:39:05;94786.94;;;5.45;100.00
10946;BME280;5525;42.648;23.368;2023-04-08T02:41:32;94791.72;;;5.48;100.00
10946;BME280;5525;42.648;23.368;2023-04-08T02:43:58;94792.53;;;5.48;100.00
10946;BME280;5525;42.648;23.368;2023-04-08T02:46:25;94798.19;;;5.47;100.00
10946;BME280;5525;42.648;23.368;2023-04-08T02:48:52;94790.56;;;5.54;100.00
10946;BME280;5525;42.648;23.368;2023-04-08T02:51:20;94788.69;;;5.54;100.00
10946;BME280;5525;42.648;23.368;2023-04-08T02:53:47;94793.78;;;5.56;100.00
10946;BME280;5525;42.648;23.368;2023-04-08T02:56:13;94800.81;;;5.52;100.00
10946;BME280;5525;42.648;23.368;2023-04-08T02:58:40;94799.56;;;5.44;100.00
10946;BME280;5525;42.648;23.368;2023-04-08T03:01:07;94789.44;;;5.41;100.00
10946;BME280;5525;42.648;23.368;2023-04-08T03:03:34;94790.66;;;5.49;100.00
10946;BME280;5525;42.648;23.368;2023-04-08T03:06:01;94795.84;;;5.40;100.00
10946;BME280;5525;42.648;23.368;2023-04-08T03:08:29;94798.41;;;5.50;100.00
10946;BME280;5525;42.648;23.368;2023-04-08T03:10:57;94800.06;;;5.46;100.00
10946;BME280;5525;42.648;23.368;2023-04-08T03:13:23;94800.28;;;5.50;100.00
10946;BME280;5525;42.648;23.368;2023-04-08T03:15:50;94795.28;;;5.62;100.00
10946;BME280;5525;42.648;23.368;2023-04-08T03:18:16;94795.72;;;5.50;100.00
10946;BME280;5525;42.648;23.368;2023-04-08T03:20:43;94789.81;;;5.53;100.00
10946;BME280;5525;42.648;23.368;2023-04-08T03:23:10;94782.78;;;5.57;100.00
10946;BME280;5525;42.648;23.368;2023-04-08T03:25:38;94784.16;;;5.55;100.00
10946;BME280;5525;42.648;23.368;2023-04-08T03:28:05;94797.53;;;5.55;100.00
10946;BME280;5525;42.648;23.368;2023-04-08T03:30:31;94805.34;;;5.51;100.00
10946;BME280;5525;42.648;23.368;2023-04-08T03:32:58;94799.84;;;5.43;100.00
10946;BME280;5525;42.648;23.368;2023-04-08T03:35:25;94794.94;;;5.68;100.00
10946;BME280;5525;42.648;23.368;2023-04-08T03:37:52;94802.16;;;5.68;100.00
10946;BME280;5525;42.648;23.368;2023-04-08T03:40:20;94791.53;;;5.63;100.00
10946;BME280;5525;42.648;23.368;2023-04-08T03:42:48;94805.34;;;5.70;100.00
10946;BME280;5525;42.648;23.368;2023-04-08T03:45:14;94802.03;;;5.78;100.00
10946;BME280;5525;42.648;23.368;2023-04-08T03:47:41;94798.31;;;5.74;100.00
10946;BME280;5525;42.648;23.368;2023-04-08T03:50:09;94806.47;;;5.69;100.00
10946;BME280;5525;42.648;23.368;2023-04-08T03:52:35;94796.69;;;5.59;100.00
10946;BME280;5525;42.648;23.368;2023-04-08T03:55:02;94788.94;;;5.58;100.00
10946;BME280;5525;42.648;23.368;2023-04-08T03:57:29;94795.16;;;5.72;100.00
10946;BME280;5525;42.648;23.368;2023-04-08T03:59:57;94794.00;;;5.78;100.00
10946;BME280;5525;42.648;23.368;2023-04-08T04:02:24;94796.34;;;5.84;100.00
10946;BME280;5525;42.648;23.368;2023-04-08T04:04:50;94800.06;;;5.65;100.00
10946;BME280;5525;42.648;23.368;2023-04-08T04:07:17;94793.66;;;5.66;100.00
10946;BME280;5525;42.648;23.368;2023-04-08T04:09:43;94793.19;;;5.77;100.00
10946;BME280;5525;42.648;23.368;2023-04-08T04:12:10;94792.38;;;5.77;100.00
10946;BME280;5525;42.648;23.368;2023-04-08T04:14:37;94789.06;;;5.66;100.00
10946;BME280;5525;42.648;23.368;2023-04-08T04:17:05;94799.00;;;5.66;100.00
10946;BME280;5525;42.648;23.368;2023-04-08T04:19:31;94795.94;;;5.72;100.00
10946;BME280;5525;42.648;23.368;2023-04-08T04:21:58;94804.13;;;5.62;100.00
10946;BME280;5525;42.648;23.368;2023-04-08T04:24:25;94811.66;;;5.60;100.00
10946;BME280;5525;42.648;23.368;2023-04-08T04:26:51;94795.00;;;5.63;100.00
10946;BME280;5525;42.648;23.368;2023-04-08T04:29:18;94809.72;;;5.66;100.00
10946;BME280;5525;42.648;23.368;2023-04-08T04:31:45;94807.03;;;5.66;100.00
10946;BME280;5525;42.648;23.368;2023-04-08T04:34:13;94805.72;;;5.63;100.00
10946;BME280;5525;42.648;23.368;2023-04-08T04:36:40;94808.84;;;5.70;100.00
10946;BME280;5525;42.648;23.368;2023-04-08T04:39:06;94809.34;;;5.72;100.00
10946;BME280;5525;42.648;23.368;2023-04-08T04:41:33;94814.09;;;5.75;100.00
10946;BME280;5525;42.648;23.368;2023-04-08T04:44:04;94799.50;;;5.86;100.00
10946;BME280;5525;42.648;23.368;2023-04-08T04:46:31;94806.38;;;5.92;100.00
10946;BME280;5525;42.648;23.368;2023-04-08T04:48:58;94799.75;;;5.90;100.00
10946;BME280;5525;42.648;23.368;2023-04-08T04:51:26;94799.84;;;5.98;100.00
10946;BME280;5525;42.648;23.368;2023-04-08T04:53:53;94801.03;;;5.92;100.00
10946;BME280;5525;42.648;23.368;2023-04-08T04:56:19;94810.09;;;5.96;100.00
10946;BME280;5525;42.648;23.368;2023-04-08T04:58:46;94820.94;;;5.86;100.00
10946;BME280;5525;42.648;23.368;2023-04-08T05:01:13;94812.97;;;6.00;100.00
10946;BME280;5525;42.648;23.368;2023-04-08T05:03:40;94815.06;;;6.03;100.00
10946;BME280;5525;42.648;23.368;2023-04-08T05:06:06;94813.69;;;6.24;100.00
10946;BME280;5525;42.648;23.368;2023-04-08T05:08:34;94824.75;;;6.36;100.00
10946;BME280;5525;42.648;23.368;2023-04-08T05:11:01;94819.78;;;6.43;100.00
10946;BME280;5525;42.648;23.368;2023-04-08T05:13:28;94817.03;;;6.48;100.00
10946;BME280;5525;42.648;23.368;2023-04-08T05:15:54;94815.84;;;6.54;100.00
10946;BME280;5525;42.648;23.368;2023-04-08T05:18:21;94809.91;;;6.70;100.00
10946;BME280;5525;42.648;23.368;2023-04-08T05:20:48;94809.66;;;6.85;100.00
10946;BME280;5525;42.648;23.368;2023-04-08T05:23:14;94799.59;;;6.64;100.00
10946;BME280;5525;42.648;23.368;2023-04-08T05:25:42;94813.13;;;6.86;100.00
10946;BME280;5525;42.648;23.368;2023-04-08T05:28:09;94805.66;;;6.97;100.00
10946;BME280;5525;42.648;23.368;2023-04-08T05:30:36;94811.63;;;6.80;100.00
10946;BME280;5525;42.648;23.368;2023-04-08T05:33:03;94820.00;;;7.06;100.00
10946;BME280;5525;42.648;23.368;2023-04-08T05:35:30;94812.50;;;6.75;100.00
10946;BME280;5525;42.648;23.368;2023-04-08T05:37:56;94818.13;;;6.47;100.00
10946;BME280;5525;42.648;23.368;2023-04-08T05:40:23;94819.31;;;6.54;100.00
10946;BME280;5525;42.648;23.368;2023-04-08T05:42:51;94823.50;;;6.60;100.00
10946;BME280;5525;42.648;23.368;2023-04-08T05:45:18;94818.47;;;7.00;100.00
10946;BME280;5525;42.648;23.368;2023-04-08T05:47:44;94816.41;;;7.24;100.00
10946;BME280;5525;42.648;23.368;2023-04-08T05:50:11;94809.47;;;7.36;100.00
10946;BME280;5525;42.648;23.368;2023-04-08T05:52:41;94803.13;;;7.68;100.00
10946;BME280;5525;42.648;23.368;2023-04-08T05:55:08;94802.56;;;7.93;100.00
10946;BME280;5525;42.648;23.368;2023-04-08T05:57:34;94803.69;;;8.14;100.00
10946;BME280;5525;42.648;23.368;2023-04-08T06:00:03;94807.75;;;8.25;100.00
10946;BME280;5525;42.648;23.368;2023-04-08T06:02:30;94802.75;;;8.32;100.00
10946;BME280;5525;42.648;23.368;2023-04-08T06:04:57;94805.25;;;8.15;100.00
10946;BME280;5525;42.648;23.368;2023-04-08T06:07:24;94813.84;;;8.17;100.00
10946;BME280;5525;42.648;23.368;2023-04-08T06:09:50;94810.28;;;8.08;100.00
10946;BME280;5525;42.648;23.368;2023-04-08T06:12:17;94814.84;;;8.21;100.00
10946;BME280;5525;42.648;23.368;2023-04-08T06:14:44;94809.97;;;8.09;100.00
10946;BME280;5525;42.648;23.368;2023-04-08T06:17:12;94801.34;;;7.99;100.00
10946;BME280;5525;42.648;23.368;2023-04-08T06:19:38;94811.00;;;8.00;100.00
10946;BME280;5525;42.648;23.368;2023-04-08T06:22:05;94810.78;;;8.10;100.00
10946;BME280;5525;42.648;23.368;2023-04-08T06:24:32;94808.56;;;8.12;100.00
10946;BME280;5525;42.648;23.368;2023-04-08T06:26:59;94810.38;;;8.38;100.00
10946;BME280;5525;42.648;23.368;2023-04-08T06:29:25;94802.22;;;8.74;100.00
10946;BME280;5525;42.648;23.368;2023-04-08T06:31:54;94810.06;;;9.23;100.00
10946;BME280;5525;42.648;23.368;2023-04-08T06:34:22;94813.34;;;9.68;99.22
10946;BME280;5525;42.648;23.368;2023-04-08T06:36:48;94804.69;;;10.05;94.94
10946;BME280;5525;42.648;23.368;2023-04-08T06:39:15;94804.25;;;10.37;92.99
10946;BME280;5525;42.648;23.368;2023-04-08T06:41:43;94818.53;;;10.20;93.26
10946;BME280;5525;42.648;23.368;2023-04-08T06:44:10;94818.94;;;9.97;95.47
10946;BME280;5525;42.648;23.368;2023-04-08T06:46:37;94809.41;;;9.65;97.73
10946;BME280;5525;42.648;23.368;2023-04-08T06:49:03;94818.22;;;9.49;99.90
10946;BME280;5525;42.648;23.368;2023-04-08T06:51:32;94818.66;;;9.34;100.00
10946;BME280;5525;42.648;23.368;2023-04-08T06:53:59;94820.69;;;9.28;100.00
10946;BME280;5525;42.648;23.368;2023-04-08T06:56:26;94817.97;;;9.20;100.00
10946;BME280;5525;42.648;23.368;2023-04-08T06:58:53;94809.56;;;9.21;100.00
10946;BME280;5525;42.648;23.368;2023-04-08T07:01:19;94816.31;;;9.10;100.00
10946;BME280;5525;42.648;23.368;2023-04-08T07:03:46;94813.63;;;9.10;100.00
10946;BME280;5525;42.648;23.368;2023-04-08T07:06:13;94814.94;;;9.21;100.00
10946;BME280;5525;42.648;23.368;2023-04-08T07:08:41;94807.66;;;9.13;100.00
10946;BME280;5525;42.648;23.368;2023-04-08T07:11:07;94819.66;;;9.46;99.83
10946;BME280;5525;42.648;23.368;2023-04-08T07:13:34;94815.38;;;9.54;98.69
10946;BME280;5525;42.648;23.368;2023-04-08T07:16:01;94822.06;;;9.65;97.08
10946;BME280;5525;42.648;23.368;2023-04-08T07:18:27;94824.19;;;9.93;94.87
10946;BME280;5525;42.648;23.368;2023-04-08T07:20:55;94815.19;;;10.15;92.48
10946;BME280;5525;42.648;23.368;2023-04-08T07:23:22;94821.53;;;10.45;92.08
10946;BME280;5525;42.648;23.368;2023-04-08T07:25:50;94819.63;;;10.62;90.14
10946;BME280;5525;42.648;23.368;2023-04-08T07:28:18;94825.78;;;10.80;88.59
10946;BME280;5525;42.648;23.368;2023-04-08T07:30:45;94824.88;;;11.13;86.88
10946;BME280;5525;42.648;23.368;2023-04-08T07:33:11;94828.84;;;11.24;86.00
10946;BME280;5525;42.648;23.368;2023-04-08T07:35:39;94823.53;;;11.36;85.87
10946;BME280;5525;42.648;23.368;2023-04-08T07:38:06;94836.31;;;11.56;84.58
10946;BME280;5525;42.648;23.368;2023-04-08T07:40:35;94831.34;;;11.75;81.47
10946;BME280;5525;42.648;23.368;2023-04-08T07:43:03;94833.63;;;11.94;79.80
10946;BME280;5525;42.648;23.368;2023-04-08T07:45:30;94823.69;;;12.07;77.79
10946;BME280;5525;42.648;23.368;2023-04-08T07:47:57;94838.88;;;12.40;75.61
10946;BME280;5525;42.648;23.368;2023-04-08T07:50:24;94836.06;;;12.69;74.62
10946;BME280;5525;42.648;23.368;2023-04-08T07:52:50;94840.84;;;12.52;75.53
10946;BME280;5525;42.648;23.368;2023-04-08T07:55:17;94829.59;;;13.15;73.16
10946;BME280;5525;42.648;23.368;2023-04-08T07:57:44;94839.56;;;13.35;69.87
10946;BME280;5525;42.648;23.368;2023-04-08T08:00:13;94841.59;;;13.26;68.74
10946;BME280;5525;42.648;23.368;2023-04-08T08:02:45;94838.78;;;13.34;68.86
10946;BME280;5525;42.648;23.368;2023-04-08T08:05:12;94848.97;;;13.37;67.97
10946;BME280;5525;42.648;23.368;2023-04-08T08:07:38;94846.69;;;13.27;67.18
10946;BME280;5525;42.648;23.368;2023-04-08T08:10:06;94842.88;;;13.65;66.42
10946;BME280;5525;42.648;23.368;2023-04-08T08:12:33;94851.25;;;13.59;66.42
10946;BME280;5525;42.648;23.368;2023-04-08T08:15:00;94846.06;;;13.91;65.04
10946;BME280;5525;42.648;23.368;2023-04-08T08:17:28;94849.34;;;13.84;63.43
10946;BME280;5525;42.648;23.368;2023-04-08T08:19:57;94848.19;;;14.21;61.91
10946;BME280;5525;42.648;23.368;2023-04-08T08:22:24;94850.13;;;14.09;61.31
10946;BME280;5525;42.648;23.368;2023-04-08T08:24:54;94857.34;;;14.41;60.47
10946;BME280;5525;42.648;23.368;2023-04-08T08:27:22;94856.19;;;14.54;59.62
10946;BME280;5525;42.648;23.368;2023-04-08T08:29:48;94855.88;;;15.10;57.65
10946;BME280;5525;42.648;23.368;2023-04-08T08:32:15;94856.31;;;14.85;57.52
10946;BME280;5525;42.648;23.368;2023-04-08T08:34:43;94859.94;;;14.49;59.54
10946;BME280;5525;42.648;23.368;2023-04-08T08:37:10;94856.50;;;14.64;59.66
10946;BME280;5525;42.648;23.368;2023-04-08T08:39:37;94849.84;;;14.62;58.90
10946;BME280;5525;42.648;23.368;2023-04-08T08:42:03;94860.28;;;14.48;61.40
10946;BME280;5525;42.648;23.368;2023-04-08T08:44:30;94862.91;;;14.20;63.07
10946;BME280;5525;42.648;23.368;2023-04-08T08:46:57;94855.09;;;13.95;64.74
10946;BME280;5525;42.648;23.368;2023-04-08T08:49:23;94862.34;;;13.91;66.13
10946;BME280;5525;42.648;23.368;2023-04-08T08:51:52;94859.41;;;13.84;67.13
10946;BME280;5525;42.648;23.368;2023-04-08T08:54:20;94856.56;;;13.56;68.51
10946;BME280;5525;42.648;23.368;2023-04-08T08:56:47;94860.53;;;13.14;70.93
10946;BME280;5525;42.648;23.368;2023-04-08T08:59:14;94862.41;;;13.01;71.77
10946;BME280;5525;42.648;23.368;2023-04-08T09:01:40;94866.72;;;12.82;73.37
10946;BME280;5525;42.648;23.368;2023-04-08T09:04:13;94870.09;;;12.79;75.25
10946;BME280;5525;42.648;23.368;2023-04-08T09:06:43;94866.66;;;13.23;74.76
10946;BME280;5525;42.648;23.368;2023-04-08T09:09:12;94872.25;;;13.38;72.81
10946;BME280;5525;42.648;23.368;2023-04-08T09:11:40;94873.47;;;13.29;73.33
10946;BME280;5525;42.648;23.368;2023-04-08T09:14:21;94867.50;;;13.35;71.32
10946;BME280;5525;42.648;23.368;2023-04-08T09:16:48;94864.72;;;13.56;71.81
10946;BME280;5525;42.648;23.368;2023-04-08T09:19:15;94873.59;;;13.44;68.81
10946;BME280;5525;42.648;23.368;2023-04-08T09:21:42;94861.66;;;13.82;68.15
10946;BME280;5525;42.648;23.368;2023-04-08T09:24:09;94862.94;;;14.99;64.43
10946;BME280;5525;42.648;23.368;2023-04-08T09:26:53;94857.47;;;15.86;60.40
10946;BME280;5525;42.648;23.368;2023-04-08T09:29:22;94864.50;;;15.56;61.66
10946;BME280;5525;42.648;23.368;2023-04-08T09:31:52;94862.47;;;15.09;63.16
10946;BME280;5525;42.648;23.368;2023-04-08T09:34:19;94857.16;;;16.37;60.70
10946;BME280;5525;42.648;23.368;2023-04-08T09:36:47;94854.50;;;17.52;53.91
10946;BME280;5525;42.648;23.368;2023-04-08T09:39:15;94844.75;;;18.44;51.29
10946;BME280;5525;42.648;23.368;2023-04-08T09:41:42;94835.59;;;20.43;46.96
10946;BME280;5525;42.648;23.368;2023-04-08T09:44:11;94838.22;;;22.74;40.43
10946;BME280;5525;42.648;23.368;2023-04-08T09:46:39;94838.31;;;24.22;35.47
10946;BME280;5525;42.648;23.368;2023-04-08T09:49:10;94847.38;;;24.70;33.58
10946;BME280;5525;42.648;23.368;2023-04-08T09:51:40;94849.31;;;24.76;31.32
10946;BME280;5525;42.648;23.368;2023-04-08T09:54:11;94851.78;;;26.78;29.34
10946;BME280;5525;42.648;23.368;2023-04-08T09:56:43;94853.97;;;28.24;27.81
10946;BME280;5525;42.648;23.368;2023-04-08T09:59:16;94841.88;;;28.34;26.21
10946;BME280;5525;42.648;23.368;2023-04-08T10:01:49;94848.25;;;29.27;25.83
10946;BME280;5525;42.648;23.368;2023-04-08T10:04:19;94837.94;;;29.40;24.51
10946;BME280;5525;42.648;23.368;2023-04-08T10:06:49;94846.63;;;28.97;24.48
10946;BME280;5525;42.648;23.368;2023-04-08T10:09:19;94844.84;;;28.75;25.08
10946;BME280;5525;42.648;23.368;2023-04-08T10:11:46;94839.75;;;27.86;25.42
10946;BME280;5525;42.648;23.368;2023-04-08T10:14:15;94832.84;;;25.03;28.47
10946;BME280;5525;42.648;23.368;2023-04-08T10:16:41;94829.94;;;22.42;31.41
10946;BME280;5525;42.648;23.368;2023-04-08T10:19:35;94841.47;;;19.57;35.27
10946;BME280;5525;42.648;23.368;2023-04-08T10:22:46;94840.72;;;17.90;39.21
10946;BME280;5525;42.648;23.368;2023-04-08T10:25:30;94833.44;;;16.22;43.93
10946;BME280;5525;42.648;23.368;2023-04-08T10:27:58;94836.66;;;15.62;45.86
10946;BME280;5525;42.648;23.368;2023-04-08T10:30:42;94838.19;;;14.89;50.67
10946;BME280;5525;42.648;23.368;2023-04-08T10:33:10;94827.94;;;14.31;54.21
10946;BME280;5525;42.648;23.368;2023-04-08T10:35:40;94831.59;;;14.62;54.64
10946;BME280;5525;42.648;23.368;2023-04-08T10:38:07;94821.50;;;15.34;52.68
10946;BME280;5525;42.648;23.368;2023-04-08T10:40:35;94822.59;;;16.41;49.43
10946;BME280;5525;42.648;23.368;2023-04-08T10:43:03;94813.56;;;16.37;49.26
10946;BME280;5525;42.648;23.368;2023-04-08T10:45:30;94814.44;;;16.26;49.83
10946;BME280;5525;42.648;23.368;2023-04-08T10:48:12;94813.31;;;15.61;52.29
10946;BME280;5525;42.648;23.368;2023-04-08T10:50:39;94805.69;;;15.51;53.20
10946;BME280;5525;42.648;23.368;2023-04-08T10:53:06;94806.75;;;14.76;53.91
10946;BME280;5525;42.648;23.368;2023-04-08T10:55:33;94798.97;;;15.95;52.74
10946;BME280;5525;42.648;23.368;2023-04-08T10:58:05;94793.88;;;17.88;46.91
10946;BME280;5525;42.648;23.368;2023-04-08T11:00:32;94802.56;;;18.45;44.48
10946;BME280;5525;42.648;23.368;2023-04-08T11:03:00;94794.34;;;19.05;43.06
10946;BME280;5525;42.648;23.368;2023-04-08T11:05:28;94794.34;;;19.81;40.43
10946;BME280;5525;42.648;23.368;2023-04-08T11:07:55;94787.66;;;19.02;41.59
10946;BME280;5525;42.648;23.368;2023-04-08T11:10:22;94786.84;;;18.69;41.04
10946;BME280;5525;42.648;23.368;2023-04-08T11:12:49;94784.31;;;17.52;43.45
10946;BME280;5525;42.648;23.368;2023-04-08T11:15:18;94780.53;;;19.27;40.31
10946;BME280;5525;42.648;23.368;2023-04-08T11:17:46;94784.81;;;20.12;38.35
10946;BME280;5525;42.648;23.368;2023-04-08T11:20:13;94786.91;;;19.82;38.51
10946;BME280;5525;42.648;23.368;2023-04-08T11:22:42;94781.19;;;18.84;40.33
10946;BME280;5525;42.648;23.368;2023-04-08T11:25:10;94776.13;;;18.86;40.53
10946;BME280;5525;42.648;23.368;2023-04-08T11:27:37;94779.34;;;18.36;40.82
10946;BME280;5525;42.648;23.368;2023-04-08T11:30:06;94768.44;;;17.39;42.32
10946;BME280;5525;42.648;23.368;2023-04-08T11:32:34;94774.50;;;16.49;44.44
10946;BME280;5525;42.648;23.368;2023-04-08T11:35:04;94774.84;;;16.47;45.05
10946;BME280;5525;42.648;23.368;2023-04-08T11:37:38;94776.72;;;17.65;43.28
10946;BME280;5525;42.648;23.368;2023-04-08T11:40:11;94763.59;;;19.18;38.77
10946;BME280;5525;42.648;23.368;2023-04-08T11:42:38;94756.56;;;20.69;36.47
10946;BME280;5525;42.648;23.368;2023-04-08T11:45:12;94755.91;;;21.00;34.55
10946;BME280;5525;42.648;23.368;2023-04-08T11:47:39;94757.25;;;19.47;36.10
10946;BME280;5525;42.648;23.368;2023-04-08T11:50:06;94752.72;;;18.29;38.88
10946;BME280;5525;42.648;23.368;2023-04-08T11:52:40;94748.34;;;17.05;41.65
10946;BME280;5525;42.648;23.368;2023-04-08T11:55:10;94748.47;;;16.17;43.87
10946;BME280;5525;42.648;23.368;2023-04-08T11:57:37;94752.22;;;15.43;46.01
10946;BME280;5525;42.648;23.368;2023-04-08T12:00:05;94752.69;;;14.59;48.79
10946;BME280;5525;42.648;23.368;2023-04-08T12:02:32;94757.41;;;14.22;51.20
10946;BME280;5525;42.648;23.368;2023-04-08T12:04:58;94732.06;;;15.01;50.62
10946;BME280;5525;42.648;23.368;2023-04-08T12:07:25;94733.25;;;16.69;46.86
10946;BME280;5525;42.648;23.368;2023-04-08T12:09:52;94729.97;;;16.60;46.63
10946;BME280;5525;42.648;23.368;2023-04-08T12:12:20;94730.03;;;15.91;47.73
10946;BME280;5525;42.648;23.368;2023-04-08T12:14:47;94732.38;;;16.65;46.06
10946;BME280;5525;42.648;23.368;2023-04-08T12:17:13;94740.03;;;16.41;46.45
10946;BME280;5525;42.648;23.368;2023-04-08T12:19:40;94739.16;;;16.18;45.90
10946;BME280;5525;42.648;23.368;2023-04-08T12:22:07;94732.97;;;15.20;45.79
10946;BME280;5525;42.648;23.368;2023-04-08T12:24:33;94737.28;;;15.53;46.37
10946;BME280;5525;42.648;23.368;2023-04-08T12:27:00;94729.53;;;16.24;45.60
10946;BME280;5525;42.648;23.368;2023-04-08T12:29:30;94731.94;;;15.91;47.47
10946;BME280;5525;42.648;23.368;2023-04-08T12:31:57;94723.22;;;15.66;46.82
10946;BME280;5525;42.648;23.368;2023-04-08T12:34:24;94723.41;;;15.11;47.42
10946;BME280;5525;42.648;23.368;2023-04-08T12:36:50;94713.91;;;14.89;47.92
10946;BME280;5525;42.648;23.368;2023-04-08T12:39:17;94719.81;;;14.36;50.20
10946;BME280;5525;42.648;23.368;2023-04-08T12:41:44;94716.59;;;14.31;51.21
10946;BME280;5525;42.648;23.368;2023-04-08T12:44:10;94711.16;;;14.19;52.58
10946;BME280;5525;42.648;23.368;2023-04-08T12:46:38;94715.78;;;14.30;53.49
10946;BME280;5525;42.648;23.368;2023-04-08T12:49:05;94714.31;;;14.21;54.42
10946;BME280;5525;42.648;23.368;2023-04-08T12:51:32;94709.66;;;14.33;55.48
10946;BME280;5525;42.648;23.368;2023-04-08T12:53:58;94714.44;;;13.85;55.50
10946;BME280;5525;42.648;23.368;2023-04-08T12:56:26;94708.00;;;13.53;58.76
10946;BME280;5525;42.648;23.368;2023-04-08T12:58:52;94711.09;;;13.39;60.73
10946;BME280;5525;42.648;23.368;2023-04-08T13:01:20;94706.47;;;13.28;59.77
10946;BME280;5525;42.648;23.368;2023-04-08T13:03:48;94710.88;;;13.32;60.39